sensor_id;sensor_type;location;lat;lon;timestamp;temperature;humidity
10678;DHT22;5387;48.722;9.110;2022-07-17T00:00:27;15.20;96.00
10678;DHT22;5387;48.722;9.110;2022-07-17T00:02:54;15.30;95.90
10678;DHT22;5387;48.722;9.110;2022-07-17T00:05:23;15.20;95.40
10678;DHT22;5387;48.722;9.110;2022-07-17T00:07:49;15.10;95.80
10678;DHT22;5387;48.722;9.110;2022-07-17T00:10:17;15.10;96.10
10678;DHT22;5387;48.722;9.110;2022-07-17T00:12:44;15.10;97.10
10678;DHT22;5387;48.722;9.110;2022-07-17T00:15:11;15.10;97.50
10678;DHT22;5387;48.722;9.110;2022-07-17T00:17:38;15.10;97.80
10678;DHT22;5387;48.722;9.110;2022-07-17T00:20:06;15.00;98.20
10678;DHT22;5387;48.722;9.110;2022-07-17T00:22:35;15.10;97.40
10678;DHT22;5387;48.722;9.110;2022-07-17T00:25:02;15.00;97.50
10678;DHT22;5387;48.722;9.110;2022-07-17T00:27:29;14.90;98.40
10678;DHT22;5387;48.722;9.110;2022-07-17T00:29:56;14.90;98.10
10678;DHT22;5387;48.722;9.110;2022-07-17T00:32:23;14.80;98.50
10678;DHT22;5387;48.722;9.110;2022-07-17T00:34:50;14.80;99.50
10678;DHT22;5387;48.722;9.110;2022-07-17T00:37:17;14.80;99.90
10678;DHT22;5387;48.722;9.110;2022-07-17T00:39:45;14.70;99.90
10678;DHT22;5387;48.722;9.110;2022-07-17T00:42:12;14.70;99.90
10678;DHT22;5387;48.722;9.110;2022-07-17T00:44:40;14.60;99.90
10678;DHT22;5387;48.722;9.110;2022-07-17T00:47:11;14.60;99.90
10678;DHT22;5387;48.722;9.110;2022-07-17T00:49:38;14.60;99.90
10678;DHT22;5387;48.722;9.110;2022-07-17T00:52:05;14.50;99.90
10678;DHT22;5387;48.722;9.110;2022-07-17T00:54:35;14.40;99.90
10678;DHT22;5387;48.722;9.110;2022-07-17T00:57:05;14.40;99.90
10678;DHT22;5387;48.722;9.110;2022-07-17T00:59:32;14.40;99.90
10678;DHT22;5387;48.722;9.110;2022-07-17T01:02:00;14.30;99.90
10678;DHT22;5387;48.722;9.110;2022-07-17T01:04:26;14.30;99.90
10678;DHT22;5387;48.722;9.110;2022-07-17T01:06:53;14.30;99.90
10678;DHT22;5387;48.722;9.110;2022-07-17T01:09:20;14.20;99.90
10678;DHT22;5387;48.722;9.110;2022-07-17T01:11:47;14.20;99.90
10678;DHT22;5387;48.722;9.110;2022-07-17T01:14:16;14.10;99.90
10678;DHT22;5387;48.722;9.110;2022-07-17T01:16:43;14.20;99.90
10678;DHT22;5387;48.722;9.110;2022-07-17T01:19:11;14.10;99.90
10678;DHT22;5387;48.722;9.110;2022-07-17T01:21:40;14.10;99.90
10678;DHT22;5387;48.722;9.110;2022-07-17T01:24:07;14.00;99.90
10678;DHT22;5387;48.722;9.110;2022-07-17T01:26:34;13.90;99.90
10678;DHT22;5387;48.722;9.110;2022-07-17T01:29:01;13.90;99.90
10678;DHT22;5387;48.722;9.110;2022-07-17T01:31:28;13.90;99.90
10678;DHT22;5387;48.722;9.110;2022-07-17T01:33:56;13.90;99.90
10678;DHT22;5387;48.722;9.110;2022-07-17T01:36:23;13.90;99.90
10678;DHT22;5387;48.722;9.110;2022-07-17T01:38:52;14.00;99.90
10678;DHT22;5387;48.722;9.110;2022-07-17T01:41:20;13.90;99.90
10678;DHT22;5387;48.722;9.110;2022-07-17T01:43:47;13.80;99.90
10678;DHT22;5387;48.722;9.110;2022-07-17T01:46:14;13.70;99.90
10678;DHT22;5387;48.722;9.110;2022-07-17T01:48:41;13.70;99.90
10678;DHT22;5387;48.722;9.110;2022-07-17T01:51:08;13.80;99.90
10678;DHT22;5387;48.722;9.110;2022-07-17T01:53:35;13.70;99.90
10678;DHT22;5387;48.722;9.110;2022-07-17T01:56:03;13.80;99.90
10678;DHT22;5387;48.722;9.110;2022-07-17T01:58:30;13.80;99.90
10678;DHT22;5387;48.722;9.110;2022-07-17T02:00:57;13.80;99.90
10678;DHT22;5387;48.722;9.110;2022-07-17T02:03:24;13.80;99.90
10678;DHT22;5387;48.722;9.110;2022-07-17T02:05:51;13.80;99.90
10678;DHT22;5387;48.722;9.110;2022-07-17T02:08:18;13.80;99.90
10678;DHT22;5387;48.722;9.110;2022-07-17T02:10:45;13.70;99.90
10678;DHT22;5387;48.722;9.110;2022-07-17T02:13:13;13.70;99.90
10678;DHT22;5387;48.722;9.110;2022-07-17T02:15:40;13.60;99.90
10678;DHT22;5387;48.722;9.110;2022-07-17T02:18:06;13.70;99.90
10678;DHT22;5387;48.722;9.110;2022-07-17T02:20:34;13.70;99.90
10678;DHT22;5387;48.722;9.110;2022-07-17T02:23:01;13.70;99.90
10678;DHT22;5387;48.722;9.110;2022-07-17T02:25:27;13.70;99.90
10678;DHT22;5387;48.722;9.110;2022-07-17T02:27:54;13.70;99.90
10678;DHT22;5387;48.722;9.110;2022-07-17T02:30:22;13.60;99.90
10678;DHT22;5387;48.722;9.110;2022-07-17T02:32:49;13.60;99.90
10678;DHT22;5387;48.722;9.110;2022-07-17T02:35:16;13.60;99.90
10678;DHT22;5387;48.722;9.110;2022-07-17T02:37:43;13.60;99.90
10678;DHT22;5387;48.722;9.110;2022-07-17T02:40:12;13.60;99.90
10678;DHT22;5387;48.722;9.110;2022-07-17T02:42:39;13.50;99.90
10678;DHT22;5387;48.722;9.110;2022-07-17T02:45:07;13.50;99.90
10678;DHT22;5387;48.722;9.110;2022-07-17T02:47:36;13.40;99.90
10678;DHT22;5387;48.722;9.110;2022-07-17T02:50:04;13.40;99.90
10678;DHT22;5387;48.722;9.110;2022-07-17T02:52:32;13.30;99.90
10678;DHT22;5387;48.722;9.110;2022-07-17T02:54:59;13.30;99.90
10678;DHT22;5387;48.722;9.110;2022-07-17T02:57:26;13.40;99.90
10678;DHT22;5387;48.722;9.110;2022-07-17T02:59:52;13.30;99.90
10678;DHT22;5387;48.722;9.110;2022-07-17T03:02:19;13.30;99.90
10678;DHT22;5387;48.722;9.110;2022-07-17T03:04:48;13.30;99.90
10678;DHT22;5387;48.722;9.110;2022-07-17T03:07:14;13.20;99.90
10678;DHT22;5387;48.722;9.110;2022-07-17T03:09:41;13.20;99.90
10678;DHT22;5387;48.722;9.110;2022-07-17T03:12:08;13.20;99.90
10678;DHT22;5387;48.722;9.110;2022-07-17T03:14:35;13.10;99.90
10678;DHT22;5387;48.722;9.110;2022-07-17T03:17:02;13.00;99.90
10678;DHT22;5387;48.722;9.110;2022-07-17T03:19:29;12.90;99.90
10678;DHT22;5387;48.722;9.110;2022-07-17T03:21:57;12.90;99.90
10678;DHT22;5387;48.722;9.110;2022-07-17T03:24:24;13.00;99.90
10678;DHT22;5387;48.722;9.110;2022-07-17T03:26:50;12.90;99.90
10678;DHT22;5387;48.722;9.110;2022-07-17T03:29:17;12.80;99.90
10678;DHT22;5387;48.722;9.110;2022-07-17T03:31:44;12.70;99.90
10678;DHT22;5387;48.722;9.110;2022-07-17T03:34:11;12.60;99.90
10678;DHT22;5387;48.722;9.110;2022-07-17T03:36:38;12.70;99.90
10678;DHT22;5387;48.722;9.110;2022-07-17T03:39:07;12.70;99.90
10678;DHT22;5387;48.722;9.110;2022-07-17T03:41:33;12.60;99.90
10678;DHT22;5387;48.722;9.110;2022-07-17T03:44:01;12.70;99.90
10678;DHT22;5387;48.722;9.110;2022-07-17T03:46:28;12.70;99.90
10678;DHT22;5387;48.722;9.110;2022-07-17T03:48:55;12.60;99.90
10678;DHT22;5387;48.722;9.110;2022-07-17T03:51:21;12.60;99.90
10678;DHT22;5387;48.722;9.110;2022-07-17T03:53:48;12.60;99.90
10678;DHT22;5387;48.722;9.110;2022-07-17T03:56:17;12.60;99.90
10678;DHT22;5387;48.722;9.110;2022-07-17T03:58:43;12.50;99.90
10678;DHT22;5387;48.722;9.110;2022-07-17T04:01:10;12.60;99.90
10678;DHT22;5387;48.722;9.110;2022-07-17T04:03:37;12.60;99.90
10678;DHT22;5387;48.722;9.110;2022-07-17T04:06:04;12.60;99.90
10678;DHT22;5387;48.722;9.110;2022-07-17T04:08:31;12.80;99.90
10678;DHT22;5387;48.722;9.110;2022-07-17T04:10:58;12.70;99.90
10678;DHT22;5387;48.722;9.110;2022-07-17T04:13:26;12.90;99.90
10678;DHT22;5387;48.722;9.110;2022-07-17T04:15:53;13.10;99.90
10678;DHT22;5387;48.722;9.110;2022-07-17T04:18:23;13.40;99.90
10678;DHT22;5387;48.722;9.110;2022-07-17T04:20:51;13.40;99.90
10678;DHT22;5387;48.722;9.110;2022-07-17T04:23:18;13.40;99.90
10678;DHT22;5387;48.722;9.110;2022-07-17T04:25:45;13.50;99.90
10678;DHT22;5387;48.722;9.110;2022-07-17T04:28:13;13.60;99.90
10678;DHT22;5387;48.722;9.110;2022-07-17T04:30:41;13.70;99.90
10678;DHT22;5387;48.722;9.110;2022-07-17T04:33:09;13.70;99.90
10678;DHT22;5387;48.722;9.110;2022-07-17T04:35:36;13.80;99.90
10678;DHT22;5387;48.722;9.110;2022-07-17T04:38:03;13.90;99.90
10678;DHT22;5387;48.722;9.110;2022-07-17T04:40:30;14.00;99.90
10678;DHT22;5387;48.722;9.110;2022-07-17T04:42:57;14.00;99.90
10678;DHT22;5387;48.722;9.110;2022-07-17T04:45:24;14.10;99.90
10678;DHT22;5387;48.722;9.110;2022-07-17T04:47:52;14.20;99.90
10678;DHT22;5387;48.722;9.110;2022-07-17T04:50:19;14.30;99.90
10678;DHT22;5387;48.722;9.110;2022-07-17T04:52:46;14.50;99.90
10678;DHT22;5387;48.722;9.110;2022-07-17T04:55:14;14.70;99.90
10678;DHT22;5387;48.722;9.110;2022-07-17T04:57:41;14.80;99.90
10678;DHT22;5387;48.722;9.110;2022-07-17T05:00:10;14.90;99.90
10678;DHT22;5387;48.722;9.110;2022-07-17T05:02:37;15.00;99.90
10678;DHT22;5387;48.722;9.110;2022-07-17T05:05:07;15.10;99.90
10678;DHT22;5387;48.722;9.110;2022-07-17T05:07:34;15.20;99.90
10678;DHT22;5387;48.722;9.110;2022-07-17T05:10:01;15.30;99.90
10678;DHT22;5387;48.722;9.110;2022-07-17T05:12:29;15.40;99.90
10678;DHT22;5387;48.722;9.110;2022-07-17T05:14:56;15.40;99.90
10678;DHT22;5387;48.722;9.110;2022-07-17T05:17:24;15.50;99.90
10678;DHT22;5387;48.722;9.110;2022-07-17T05:19:50;15.50;99.90
10678;DHT22;5387;48.722;9.110;2022-07-17T05:22:19;15.60;99.90
10678;DHT22;5387;48.722;9.110;2022-07-17T05:24:45;15.70;99.90
10678;DHT22;5387;48.722;9.110;2022-07-17T05:27:12;15.80;99.90
10678;DHT22;5387;48.722;9.110;2022-07-17T05:29:39;15.90;99.90
10678;DHT22;5387;48.722;9.110;2022-07-17T05:32:06;16.10;99.90
10678;DHT22;5387;48.722;9.110;2022-07-17T05:34:33;16.10;99.90
10678;DHT22;5387;48.722;9.110;2022-07-17T05:37:00;16.30;99.90
10678;DHT22;5387;48.722;9.110;2022-07-17T05:39:28;16.30;99.90
10678;DHT22;5387;48.722;9.110;2022-07-17T05:41:55;16.40;99.90
10678;DHT22;5387;48.722;9.110;2022-07-17T05:44:22;16.50;99.90
10678;DHT22;5387;48.722;9.110;2022-07-17T05:46:49;16.60;99.90
10678;DHT22;5387;48.722;9.110;2022-07-17T05:49:15;16.70;99.90
10678;DHT22;5387;48.722;9.110;2022-07-17T05:51:42;16.70;99.90
10678;DHT22;5387;48.722;9.110;2022-07-17T05:54:09;16.70;99.90
10678;DHT22;5387;48.722;9.110;2022-07-17T05:56:37;16.80;99.90
10678;DHT22;5387;48.722;9.110;2022-07-17T05:59:04;16.90;99.90
10678;DHT22;5387;48.722;9.110;2022-07-17T06:01:31;17.00;99.90
10678;DHT22;5387;48.722;9.110;2022-07-17T06:03:58;17.10;99.90
10678;DHT22;5387;48.722;9.110;2022-07-17T06:06:25;17.20;99.90
10678;DHT22;5387;48.722;9.110;2022-07-17T06:08:51;17.40;99.90
10678;DHT22;5387;48.722;9.110;2022-07-17T06:11:18;17.60;99.90
10678;DHT22;5387;48.722;9.110;2022-07-17T06:13:47;17.60;99.90
10678;DHT22;5387;48.722;9.110;2022-07-17T06:16:13;17.70;99.90
10678;DHT22;5387;48.722;9.110;2022-07-17T06:18:41;17.90;99.90
10678;DHT22;5387;48.722;9.110;2022-07-17T06:21:07;18.00;99.90
10678;DHT22;5387;48.722;9.110;2022-07-17T06:23:34;18.00;99.90
10678;DHT22;5387;48.722;9.110;2022-07-17T06:26:01;18.00;99.90
10678;DHT22;5387;48.722;9.110;2022-07-17T06:28:28;17.90;99.90
10678;DHT22;5387;48.722;9.110;2022-07-17T06:30:56;18.00;99.90
10678;DHT22;5387;48.722;9.110;2022-07-17T06:33:23;18.10;99.90
10678;DHT22;5387;48.722;9.110;2022-07-17T06:35:50;18.10;99.80
10678;DHT22;5387;48.722;9.110;2022-07-17T06:38:17;18.20;99.40
10678;DHT22;5387;48.722;9.110;2022-07-17T06:40:44;18.20;99.00
10678;DHT22;5387;48.722;9.110;2022-07-17T06:43:11;18.40;98.70
10678;DHT22;5387;48.722;9.110;2022-07-17T06:48:14;18.50;97.70
10678;DHT22;5387;48.722;9.110;2022-07-17T06:50:41;18.60;97.70
10678;DHT22;5387;48.722;9.110;2022-07-17T06:53:08;18.70;97.40
10678;DHT22;5387;48.722;9.110;2022-07-17T06:55:35;18.70;96.70
10678;DHT22;5387;48.722;9.110;2022-07-17T06:58:01;18.90;97.00
10678;DHT22;5387;48.722;9.110;2022-07-17T07:00:28;19.00;96.40
10678;DHT22;5387;48.722;9.110;2022-07-17T07:02:56;19.00;95.20
10678;DHT22;5387;48.722;9.110;2022-07-17T07:05:24;19.00;95.00
10678;DHT22;5387;48.722;9.110;2022-07-17T07:07:51;19.10;95.50
10678;DHT22;5387;48.722;9.110;2022-07-17T07:10:18;19.20;95.70
10678;DHT22;5387;48.722;9.110;2022-07-17T07:12:44;19.30;95.60
10678;DHT22;5387;48.722;9.110;2022-07-17T07:15:12;19.40;95.70
10678;DHT22;5387;48.722;9.110;2022-07-17T07:17:40;19.60;96.30
10678;DHT22;5387;48.722;9.110;2022-07-17T07:20:08;19.50;93.50
10678;DHT22;5387;48.722;9.110;2022-07-17T07:22:36;19.60;94.40
10678;DHT22;5387;48.722;9.110;2022-07-17T07:25:04;19.80;93.40
10678;DHT22;5387;48.722;9.110;2022-07-17T07:27:31;19.90;94.50
10678;DHT22;5387;48.722;9.110;2022-07-17T07:29:58;20.10;93.80
10678;DHT22;5387;48.722;9.110;2022-07-17T07:32:25;20.20;94.50
10678;DHT22;5387;48.722;9.110;2022-07-17T07:34:52;20.30;92.60
10678;DHT22;5387;48.722;9.110;2022-07-17T07:37:20;20.30;92.20
10678;DHT22;5387;48.722;9.110;2022-07-17T07:39:48;20.20;91.50
10678;DHT22;5387;48.722;9.110;2022-07-17T07:42:15;20.20;92.10
10678;DHT22;5387;48.722;9.110;2022-07-17T07:44:42;20.30;91.50
10678;DHT22;5387;48.722;9.110;2022-07-17T07:47:08;20.40;92.10
10678;DHT22;5387;48.722;9.110;2022-07-17T07:49:35;20.40;90.60
10678;DHT22;5387;48.722;9.110;2022-07-17T07:52:02;20.50;90.60
10678;DHT22;5387;48.722;9.110;2022-07-17T07:54:29;20.60;90.10
10678;DHT22;5387;48.722;9.110;2022-07-17T07:56:58;20.70;88.80
10678;DHT22;5387;48.722;9.110;2022-07-17T07:59:25;20.70;89.10
10678;DHT22;5387;48.722;9.110;2022-07-17T08:01:51;20.80;91.00
10678;DHT22;5387;48.722;9.110;2022-07-17T08:04:18;20.90;90.10
10678;DHT22;5387;48.722;9.110;2022-07-17T08:06:45;21.00;89.50
10678;DHT22;5387;48.722;9.110;2022-07-17T08:09:12;21.20;90.00
10678;DHT22;5387;48.722;9.110;2022-07-17T08:11:39;21.20;89.80
10678;DHT22;5387;48.722;9.110;2022-07-17T08:14:07;21.20;88.60
10678;DHT22;5387;48.722;9.110;2022-07-17T08:16:34;21.30;88.30
10678;DHT22;5387;48.722;9.110;2022-07-17T08:19:01;21.30;88.30
10678;DHT22;5387;48.722;9.110;2022-07-17T08:21:28;21.40;87.50
10678;DHT22;5387;48.722;9.110;2022-07-17T08:23:55;21.40;86.80
10678;DHT22;5387;48.722;9.110;2022-07-17T08:26:22;21.40;85.90
10678;DHT22;5387;48.722;9.110;2022-07-17T08:28:48;21.50;86.90
10678;DHT22;5387;48.722;9.110;2022-07-17T08:31:17;21.50;85.90
10678;DHT22;5387;48.722;9.110;2022-07-17T08:33:43;21.50;87.90
10678;DHT22;5387;48.722;9.110;2022-07-17T08:36:10;21.60;86.80
10678;DHT22;5387;48.722;9.110;2022-07-17T08:38:37;21.60;85.60
10678;DHT22;5387;48.722;9.110;2022-07-17T08:41:04;21.60;87.20
10678;DHT22;5387;48.722;9.110;2022-07-17T08:43:31;21.80;86.20
10678;DHT22;5387;48.722;9.110;2022-07-17T08:45:58;21.70;84.40
10678;DHT22;5387;48.722;9.110;2022-07-17T08:48:27;21.90;85.70
10678;DHT22;5387;48.722;9.110;2022-07-17T08:50:58;22.00;84.40
10678;DHT22;5387;48.722;9.110;2022-07-17T08:53:25;21.90;82.40
10678;DHT22;5387;48.722;9.110;2022-07-17T08:55:52;22.20;83.90
10678;DHT22;5387;48.722;9.110;2022-07-17T08:58:19;22.40;86.00
10678;DHT22;5387;48.722;9.110;2022-07-17T09:00:46;22.60;84.00
10678;DHT22;5387;48.722;9.110;2022-07-17T09:03:15;22.70;82.60
10678;DHT22;5387;48.722;9.110;2022-07-17T09:05:45;22.90;84.00
10678;DHT22;5387;48.722;9.110;2022-07-17T09:08:17;22.70;79.70
10678;DHT22;5387;48.722;9.110;2022-07-17T09:10:47;22.90;80.00
10678;DHT22;5387;48.722;9.110;2022-07-17T09:13:16;22.80;78.70
10678;DHT22;5387;48.722;9.110;2022-07-17T09:15:43;22.90;79.10
10678;DHT22;5387;48.722;9.110;2022-07-17T09:18:10;22.70;76.80
10678;DHT22;5387;48.722;9.110;2022-07-17T09:20:44;22.60;76.10
10678;DHT22;5387;48.722;9.110;2022-07-17T09:23:11;22.60;74.00
10678;DHT22;5387;48.722;9.110;2022-07-17T09:25:41;22.70;75.70
10678;DHT22;5387;48.722;9.110;2022-07-17T09:28:10;23.00;75.90
10678;DHT22;5387;48.722;9.110;2022-07-17T09:30:41;23.20;74.80
10678;DHT22;5387;48.722;9.110;2022-07-17T09:33:12;23.20;73.60
10678;DHT22;5387;48.722;9.110;2022-07-17T09:35:49;23.00;73.10
10678;DHT22;5387;48.722;9.110;2022-07-17T09:38:27;23.00;73.40
10678;DHT22;5387;48.722;9.110;2022-07-17T09:41:06;22.90;70.30
10678;DHT22;5387;48.722;9.110;2022-07-17T09:43:45;22.90;71.80
10678;DHT22;5387;48.722;9.110;2022-07-17T09:46:15;23.00;72.10
10678;DHT22;5387;48.722;9.110;2022-07-17T09:48:43;23.20;70.90
10678;DHT22;5387;48.722;9.110;2022-07-17T09:51:16;23.40;68.60
10678;DHT22;5387;48.722;9.110;2022-07-17T09:53:44;23.30;69.70
10678;DHT22;5387;48.722;9.110;2022-07-17T09:56:15;23.40;69.10
10678;DHT22;5387;48.722;9.110;2022-07-17T09:58:43;23.80;72.00
10678;DHT22;5387;48.722;9.110;2022-07-17T10:01:13;23.80;71.10
10678;DHT22;5387;48.722;9.110;2022-07-17T10:03:41;23.80;68.50
10678;DHT22;5387;48.722;9.110;2022-07-17T10:06:08;23.90;68.50
10678;DHT22;5387;48.722;9.110;2022-07-17T10:08:38;23.90;69.50
10678;DHT22;5387;48.722;9.110;2022-07-17T10:11:06;23.90;72.20
10678;DHT22;5387;48.722;9.110;2022-07-17T10:13:33;23.80;68.40
10678;DHT22;5387;48.722;9.110;2022-07-17T10:16:01;23.90;69.40
10678;DHT22;5387;48.722;9.110;2022-07-17T10:18:36;24.10;72.20
10678;DHT22;5387;48.722;9.110;2022-07-17T10:21:12;24.20;68.40
10678;DHT22;5387;48.722;9.110;2022-07-17T10:23:42;24.10;64.20
10678;DHT22;5387;48.722;9.110;2022-07-17T10:26:09;23.90;66.00
10678;DHT22;5387;48.722;9.110;2022-07-17T10:28:42;23.80;65.20
10678;DHT22;5387;48.722;9.110;2022-07-17T10:31:10;23.80;65.50
10678;DHT22;5387;48.722;9.110;2022-07-17T10:33:37;23.90;64.50
10678;DHT22;5387;48.722;9.110;2022-07-17T10:36:04;23.70;65.90
10678;DHT22;5387;48.722;9.110;2022-07-17T10:38:42;23.90;65.60
10678;DHT22;5387;48.722;9.110;2022-07-17T10:41:09;24.10;66.30
10678;DHT22;5387;48.722;9.110;2022-07-17T10:43:48;24.40;65.00
10678;DHT22;5387;48.722;9.110;2022-07-17T10:46:14;24.50;61.90
10678;DHT22;5387;48.722;9.110;2022-07-17T10:48:47;24.40;62.30
10678;DHT22;5387;48.722;9.110;2022-07-17T10:51:14;24.80;63.00
10678;DHT22;5387;48.722;9.110;2022-07-17T10:53:43;25.10;61.30
10678;DHT22;5387;48.722;9.110;2022-07-17T10:56:10;25.20;60.30
10678;DHT22;5387;48.722;9.110;2022-07-17T10:58:40;25.40;63.00
10678;DHT22;5387;48.722;9.110;2022-07-17T11:01:09;25.50;61.10
10678;DHT22;5387;48.722;9.110;2022-07-17T11:03:41;25.50;59.80
10678;DHT22;5387;48.722;9.110;2022-07-17T11:06:13;25.50;59.00
10678;DHT22;5387;48.722;9.110;2022-07-17T11:08:44;25.30;58.20
10678;DHT22;5387;48.722;9.110;2022-07-17T11:11:11;25.40;60.30
10678;DHT22;5387;48.722;9.110;2022-07-17T11:13:38;25.60;59.00
10678;DHT22;5387;48.722;9.110;2022-07-17T11:16:04;25.70;53.70
10678;DHT22;5387;48.722;9.110;2022-07-17T11:18:31;25.80;54.30
10678;DHT22;5387;48.722;9.110;2022-07-17T11:21:00;26.00;52.30
10678;DHT22;5387;48.722;9.110;2022-07-17T11:23:28;25.80;52.20
10678;DHT22;5387;48.722;9.110;2022-07-17T11:25:59;26.00;55.20
10678;DHT22;5387;48.722;9.110;2022-07-17T11:28:34;26.40;55.60
10678;DHT22;5387;48.722;9.110;2022-07-17T11:31:02;26.70;60.80
10678;DHT22;5387;48.722;9.110;2022-07-17T11:33:29;27.00;56.20
10678;DHT22;5387;48.722;9.110;2022-07-17T11:35:56;27.00;52.80
10678;DHT22;5387;48.722;9.110;2022-07-17T11:38:25;27.10;51.20
10678;DHT22;5387;48.722;9.110;2022-07-17T11:40:52;27.30;54.10
10678;DHT22;5387;48.722;9.110;2022-07-17T11:43:20;27.00;51.00
10678;DHT22;5387;48.722;9.110;2022-07-17T11:45:47;26.90;51.60
10678;DHT22;5387;48.722;9.110;2022-07-17T11:48:14;27.20;55.40
10678;DHT22;5387;48.722;9.110;2022-07-17T11:50:52;27.80;52.30
10678;DHT22;5387;48.722;9.110;2022-07-17T11:53:29;28.40;51.90
10678;DHT22;5387;48.722;9.110;2022-07-17T11:55:56;29.50;53.70
10678;DHT22;5387;48.722;9.110;2022-07-17T11:58:25;30.00;50.20
10678;DHT22;5387;48.722;9.110;2022-07-17T12:01:00;30.90;50.60
10678;DHT22;5387;48.722;9.110;2022-07-17T12:03:27;32.30;49.60
10678;DHT22;5387;48.722;9.110;2022-07-17T12:05:54;34.00;48.40
10678;DHT22;5387;48.722;9.110;2022-07-17T12:08:21;35.60;45.30
10678;DHT22;5387;48.722;9.110;2022-07-17T12:10:58;36.60;40.30
10678;DHT22;5387;48.722;9.110;2022-07-17T12:13:37;35.30;41.40
10678;DHT22;5387;48.722;9.110;2022-07-17T12:16:18;37.30;38.50
10678;DHT22;5387;48.722;9.110;2022-07-17T12:18:55;38.30;38.40
10678;DHT22;5387;48.722;9.110;2022-07-17T12:21:22;37.80;37.20
10678;DHT22;5387;48.722;9.110;2022-07-17T12:23:58;38.10;36.80
10678;DHT22;5387;48.722;9.110;2022-07-17T12:26:25;39.60;35.10
10678;DHT22;5387;48.722;9.110;2022-07-17T12:28:54;39.10;35.60
10678;DHT22;5387;48.722;9.110;2022-07-17T12:31:21;36.70;36.80
10678;DHT22;5387;48.722;9.110;2022-07-17T12:33:51;35.60;35.80
10678;DHT22;5387;48.722;9.110;2022-07-17T12:36:18;35.10;36.90
10678;DHT22;5387;48.722;9.110;2022-07-17T12:38:45;34.50;40.30
10678;DHT22;5387;48.722;9.110;2022-07-17T12:41:12;36.00;36.80
10678;DHT22;5387;48.722;9.110;2022-07-17T12:43:39;36.20;36.70
10678;DHT22;5387;48.722;9.110;2022-07-17T12:46:08;37.50;35.40
10678;DHT22;5387;48.722;9.110;2022-07-17T12:48:35;36.90;36.00
10678;DHT22;5387;48.722;9.110;2022-07-17T12:51:04;36.40;34.60
10678;DHT22;5387;48.722;9.110;2022-07-17T12:53:31;35.70;34.30
10678;DHT22;5387;48.722;9.110;2022-07-17T12:56:00;34.50;36.20
10678;DHT22;5387;48.722;9.110;2022-07-17T12:58:26;36.00;32.60
10678;DHT22;5387;48.722;9.110;2022-07-17T13:00:53;34.30;33.90
10678;DHT22;5387;48.722;9.110;2022-07-17T13:03:22;35.90;32.80
10678;DHT22;5387;48.722;9.110;2022-07-17T13:05:49;34.70;32.30
10678;DHT22;5387;48.722;9.110;2022-07-17T13:08:15;33.90;33.70
10678;DHT22;5387;48.722;9.110;2022-07-17T13:10:42;35.90;37.50
10678;DHT22;5387;48.722;9.110;2022-07-17T13:13:09;36.50;32.00
10678;DHT22;5387;48.722;9.110;2022-07-17T13:15:36;37.10;31.70
10678;DHT22;5387;48.722;9.110;2022-07-17T13:18:03;35.80;31.90
10678;DHT22;5387;48.722;9.110;2022-07-17T13:20:31;35.30;30.50
10678;DHT22;5387;48.722;9.110;2022-07-17T13:22:58;33.80;32.60
10678;DHT22;5387;48.722;9.110;2022-07-17T13:25:25;32.90;34.70
10678;DHT22;5387;48.722;9.110;2022-07-17T13:27:52;33.70;35.00
10678;DHT22;5387;48.722;9.110;2022-07-17T13:30:19;34.20;34.20
10678;DHT22;5387;48.722;9.110;2022-07-17T13:32:47;34.70;34.40
10678;DHT22;5387;48.722;9.110;2022-07-17T13:35:14;34.00;35.10
10678;DHT22;5387;48.722;9.110;2022-07-17T13:37:44;35.20;35.10
10678;DHT22;5387;48.722;9.110;2022-07-17T13:40:11;36.10;36.50
10678;DHT22;5387;48.722;9.110;2022-07-17T13:42:38;36.30;32.80
10678;DHT22;5387;48.722;9.110;2022-07-17T13:45:06;36.20;33.50
10678;DHT22;5387;48.722;9.110;2022-07-17T13:47:33;35.90;32.70
10678;DHT22;5387;48.722;9.110;2022-07-17T13:50:00;35.10;36.10
10678;DHT22;5387;48.722;9.110;2022-07-17T13:52:27;34.40;33.30
10678;DHT22;5387;48.722;9.110;2022-07-17T13:54:55;33.80;36.90
10678;DHT22;5387;48.722;9.110;2022-07-17T13:57:22;33.70;35.80
10678;DHT22;5387;48.722;9.110;2022-07-17T13:59:49;32.90;36.40
10678;DHT22;5387;48.722;9.110;2022-07-17T14:02:16;31.90;38.60
10678;DHT22;5387;48.722;9.110;2022-07-17T14:04:43;30.50;38.50
10678;DHT22;5387;48.722;9.110;2022-07-17T14:07:10;29.80;38.50
10678;DHT22;5387;48.722;9.110;2022-07-17T14:09:37;29.10;39.30
10678;DHT22;5387;48.722;9.110;2022-07-17T14:12:06;29.00;38.70
10678;DHT22;5387;48.722;9.110;2022-07-17T14:14:33;28.70;40.40
10678;DHT22;5387;48.722;9.110;2022-07-17T14:17:00;28.70;38.00
10678;DHT22;5387;48.722;9.110;2022-07-17T14:19:27;28.30;38.20
10678;DHT22;5387;48.722;9.110;2022-07-17T14:21:54;28.40;41.40
10678;DHT22;5387;48.722;9.110;2022-07-17T14:24:21;28.40;41.90
10678;DHT22;5387;48.722;9.110;2022-07-17T14:26:48;28.30;38.60
10678;DHT22;5387;48.722;9.110;2022-07-17T14:29:16;28.00;42.30
10678;DHT22;5387;48.722;9.110;2022-07-17T14:31:43;27.90;39.50
10678;DHT22;5387;48.722;9.110;2022-07-17T14:34:10;27.80;40.30
10678;DHT22;5387;48.722;9.110;2022-07-17T14:36:37;27.90;41.90
10678;DHT22;5387;48.722;9.110;2022-07-17T14:39:04;27.90;40.20
10678;DHT22;5387;48.722;9.110;2022-07-17T14:41:31;27.90;41.80
10678;DHT22;5387;48.722;9.110;2022-07-17T14:43:58;27.70;40.60
10678;DHT22;5387;48.722;9.110;2022-07-17T14:46:26;27.90;42.10
10678;DHT22;5387;48.722;9.110;2022-07-17T14:48:53;27.90;43.10
10678;DHT22;5387;48.722;9.110;2022-07-17T14:51:20;27.90;41.30
10678;DHT22;5387;48.722;9.110;2022-07-17T14:53:47;27.80;40.50
10678;DHT22;5387;48.722;9.110;2022-07-17T14:56:14;27.70;41.10
10678;DHT22;5387;48.722;9.110;2022-07-17T14:58:41;27.80;39.80
10678;DHT22;5387;48.722;9.110;2022-07-17T15:01:08;27.50;40.00
10678;DHT22;5387;48.722;9.110;2022-07-17T15:03:36;27.40;40.90
10678;DHT22;5387;48.722;9.110;2022-07-17T15:06:03;27.30;38.80
10678;DHT22;5387;48.722;9.110;2022-07-17T15:08:30;27.30;39.00
10678;DHT22;5387;48.722;9.110;2022-07-17T15:10:57;27.40;38.70
10678;DHT22;5387;48.722;9.110;2022-07-17T15:13:24;27.50;38.20
10678;DHT22;5387;48.722;9.110;2022-07-17T15:15:52;27.40;40.60
10678;DHT22;5387;48.722;9.110;2022-07-17T15:18:19;27.40;40.50
10678;DHT22;5387;48.722;9.110;2022-07-17T15:20:47;27.50;37.90
10678;DHT22;5387;48.722;9.110;2022-07-17T15:23:14;27.50;37.70
10678;DHT22;5387;48.722;9.110;2022-07-17T15:25:41;27.60;39.30
10678;DHT22;5387;48.722;9.110;2022-07-17T15:28:08;27.50;39.40
10678;DHT22;5387;48.722;9.110;2022-07-17T15:30:35;27.60;38.10
10678;DHT22;5387;48.722;9.110;2022-07-17T15:33:02;27.70;37.00
10678;DHT22;5387;48.722;9.110;2022-07-17T15:35:29;27.70;41.00
10678;DHT22;5387;48.722;9.110;2022-07-17T15:37:57;27.70;36.30
10678;DHT22;5387;48.722;9.110;2022-07-17T15:40:24;27.60;36.00
10678;DHT22;5387;48.722;9.110;2022-07-17T15:42:52;27.60;39.00
10678;DHT22;5387;48.722;9.110;2022-07-17T15:45:19;27.50;38.50
10678;DHT22;5387;48.722;9.110;2022-07-17T15:47:46;27.50;38.80
10678;DHT22;5387;48.722;9.110;2022-07-17T15:50:13;27.50;39.40